sensor_id;sensor_type;location;lat;lon;timestamp;pressure;altitude;pressure_sealevel;temperature;humidity
21300;BME280;10809;49.476;11.016;2023-04-01T00:00:12;96807.47;;;8.60;62.38
21300;BME280;10809;49.476;11.016;2023-04-01T00:02:43;96811.06;;;8.59;62.47
21300;BME280;10809;49.476;11.016;2023-04-01T00:05:20;96807.34;;;8.61;62.70
21300;BME280;10809;49.476;11.016;2023-04-01T00:07:53;96799.44;;;8.61;62.43
21300;BME280;10809;49.476;11.016;2023-04-01T00:10:24;96806.31;;;8.64;62.84
21300;BME280;10809;49.476;11.016;2023-04-01T00:12:54;96810.66;;;8.65;62.87
21300;BME280;10809;49.476;11.016;2023-04-01T00:15:25;96803.44;;;8.67;62.58
21300;BME280;10809;49.476;11.016;2023-04-01T00:17:56;96805.97;;;8.68;62.52
21300;BME280;10809;49.476;11.016;2023-04-01T00:20:27;96808.38;;;8.71;62.71
21300;BME280;10809;49.476;11.016;2023-04-01T00:23:04;96806.59;;;8.72;62.73
21300;BME280;10809;49.476;11.016;2023-04-01T00:25:45;96813.44;;;8.74;62.34
21300;BME280;10809;49.476;11.016;2023-04-01T00:28:19;96794.88;;;8.76;62.75
21300;BME280;10809;49.476;11.016;2023-04-01T00:30:52;96795.59;;;8.78;62.57
21300;BME280;10809;49.476;11.016;2023-04-01T00:33:23;96796.34;;;8.80;62.77
21300;BME280;10809;49.476;11.016;2023-04-01T00:36:05;96802.38;;;8.82;62.50
21300;BME280;10809;49.476;11.016;2023-04-01T00:38:46;96797.09;;;8.82;62.42
21300;BME280;10809;49.476;11.016;2023-04-01T00:41:18;96797.09;;;8.82;62.51
21300;BME280;10809;49.476;11.016;2023-04-01T00:43:52;96794.34;;;8.83;62.05
21300;BME280;10809;49.476;11.016;2023-04-01T00:46:23;96811.84;;;8.84;62.62
21300;BME280;10809;49.476;11.016;2023-04-01T00:48:54;96803.94;;;8.84;62.39
21300;BME280;10809;49.476;11.016;2023-04-01T00:51:30;96804.69;;;8.86;62.30
21300;BME280;10809;49.476;11.016;2023-04-01T00:54:00;96802.03;;;8.86;62.42
21300;BME280;10809;49.476;11.016;2023-04-01T00:56:42;96801.06;;;8.87;62.56
21300;BME280;10809;49.476;11.016;2023-04-01T00:59:35;96794.94;;;8.87;62.14
21300;BME280;10809;49.476;11.016;2023-04-01T01:02:12;96795.69;;;8.89;62.18
21300;BME280;10809;49.476;11.016;2023-04-01T01:04:53;96791.38;;;8.88;62.23
21300;BME280;10809;49.476;11.016;2023-04-01T01:07:36;96794.81;;;8.88;62.19
21300;BME280;10809;49.476;11.016;2023-04-01T01:13:20;96793.03;;;8.89;62.25
21300;BME280;10809;49.476;11.016;2023-04-01T01:16:17;96801.81;;;8.89;62.35
21300;BME280;10809;49.476;11.016;2023-04-01T01:19:25;96796.53;;;8.89;61.98
21300;BME280;10809;49.476;11.016;2023-04-01T01:27:54;96800.84;;;8.90;62.27
21300;BME280;10809;49.476;11.016;2023-04-01T01:31:20;96801.81;;;8.89;61.90
21300;BME280;10809;49.476;11.016;2023-04-01T01:36:21;96795.69;;;8.89;62.06
21300;BME280;10809;49.476;11.016;2023-04-01T01:39:12;96792.31;;;8.87;62.14
21300;BME280;10809;49.476;11.016;2023-04-01T01:41:52;96790.63;;;8.86;62.14
21300;BME280;10809;49.476;11.016;2023-04-01T01:44:26;96797.56;;;8.87;62.08
21300;BME280;10809;49.476;11.016;2023-04-01T01:46:59;96788.84;;;8.86;62.30
21300;BME280;10809;49.476;11.016;2023-04-01T01:49:38;96796.03;;;8.84;62.14
21300;BME280;10809;49.476;11.016;2023-04-01T01:52:11;96787.13;;;8.85;62.01
21300;BME280;10809;49.476;11.016;2023-04-01T01:54:54;96786.44;;;8.83;62.55
21300;BME280;10809;49.476;11.016;2023-04-01T01:57:31;96783.78;;;8.83;62.01
21300;BME280;10809;49.476;11.016;2023-04-01T02:00:09;96789.06;;;8.83;62.17
21300;BME280;10809;49.476;11.016;2023-04-01T02:02:52;96781.25;;;8.82;62.30
21300;BME280;10809;49.476;11.016;2023-04-01T02:05:25;96781.97;;;8.84;62.12
21300;BME280;10809;49.476;11.016;2023-04-01T02:08:11;96776.81;;;8.82;62.17
21300;BME280;10809;49.476;11.016;2023-04-01T02:11:16;96777.66;;;8.83;61.75
21300;BME280;10809;49.476;11.016;2023-04-01T02:13:58;96779.34;;;8.84;61.98
21300;BME280;10809;49.476;11.016;2023-04-01T02:16:36;96777.66;;;8.83;62.15
21300;BME280;10809;49.476;11.016;2023-04-01T02:19:10;96774.16;;;8.82;61.91
21300;BME280;10809;49.476;11.016;2023-04-01T02:21:43;96781.25;;;8.82;62.14
21300;BME280;10809;49.476;11.016;2023-04-01T02:24:14;96785.56;;;8.83;62.06
21300;BME280;10809;49.476;11.016;2023-04-01T02:26:50;96780.41;;;8.81;61.79
21300;BME280;10809;49.476;11.016;2023-04-01T02:29:25;96781.25;;;8.82;62.02
21300;BME280;10809;49.476;11.016;2023-04-01T02:32:03;96779.56;;;8.81;62.07
21300;BME280;10809;49.476;11.016;2023-04-01T02:34:36;96791.81;;;8.82;61.93
21300;BME280;10809;49.476;11.016;2023-04-01T02:37:06;96778.63;;;8.82;61.94
21300;BME280;10809;49.476;11.016;2023-04-01T02:39:40;96781.34;;;8.80;61.97
21300;BME280;10809;49.476;11.016;2023-04-01T02:42:13;96787.47;;;8.81;61.96
21300;BME280;10809;49.476;11.016;2023-04-01T02:44:44;96787.47;;;8.81;61.70
21300;BME280;10809;49.476;11.016;2023-04-01T02:47:14;96787.47;;;8.81;61.95
21300;BME280;10809;49.476;11.016;2023-04-01T02:49:45;96787.47;;;8.81;61.97
21300;BME280;10809;49.476;11.016;2023-04-01T02:52:15;96789.25;;;8.80;61.96
21300;BME280;10809;49.476;11.016;2023-04-01T02:54:52;96789.38;;;8.79;61.97
21300;BME280;10809;49.476;11.016;2023-04-01T02:57:29;96794.53;;;8.80;61.79
21300;BME280;10809;49.476;11.016;2023-04-01T03:00:09;96797.28;;;8.79;61.87
21300;BME280;10809;49.476;11.016;2023-04-01T03:02:41;96794.75;;;8.77;61.81
21300;BME280;10809;49.476;11.016;2023-04-01T03:05:12;96789.47;;;8.77;61.59
21300;BME280;10809;49.476;11.016;2023-04-01T03:07:48;96809.75;;;8.77;61.75
21300;BME280;10809;49.476;11.016;2023-04-01T03:10:20;96804.50;;;8.77;61.81
21300;BME280;10809;49.476;11.016;2023-04-01T03:12:50;96806.28;;;8.76;61.63
21300;BME280;10809;49.476;11.016;2023-04-01T03:15:21;96804.59;;;8.75;61.91
21300;BME280;10809;49.476;11.016;2023-04-01T03:17:51;96808.16;;;8.74;61.93
21300;BME280;10809;49.476;11.016;2023-04-01T03:20:28;96804.72;;;8.74;61.55
21300;BME280;10809;49.476;11.016;2023-04-01T03:22:59;96808.16;;;8.74;61.81
21300;BME280;10809;49.476;11.016;2023-04-01T03:25:31;96810.00;;;8.74;61.67
21300;BME280;10809;49.476;11.016;2023-04-01T03:28:01;96809.13;;;8.73;61.84
21300;BME280;10809;49.476;11.016;2023-04-01T03:30:32;96805.75;;;8.71;61.69
21300;BME280;10809;49.476;11.016;2023-04-01T03:33:04;96809.25;;;8.72;61.50
21300;BME280;10809;49.476;11.016;2023-04-01T03:35:35;96804.94;;;8.71;61.76
21300;BME280;10809;49.476;11.016;2023-04-01T03:38:09;96819.06;;;8.70;61.71
21300;BME280;10809;49.476;11.016;2023-04-01T03:40:42;96815.59;;;8.69;61.50
21300;BME280;10809;49.476;11.016;2023-04-01T03:43:13;96813.06;;;8.68;61.71
21300;BME280;10809;49.476;11.016;2023-04-01T03:45:45;96820.13;;;8.67;61.66
21300;BME280;10809;49.476;11.016;2023-04-01T03:48:17;96822.88;;;8.66;61.75
21300;BME280;10809;49.476;11.016;2023-04-01T03:50:51;96825.63;;;8.64;61.68
21300;BME280;10809;49.476;11.016;2023-04-01T03:53:22;96816.84;;;8.64;61.52
21300;BME280;10809;49.476;11.016;2023-04-01T03:55:53;96821.31;;;8.63;61.67
21300;BME280;10809;49.476;11.016;2023-04-01T03:58:24;96823.09;;;8.63;61.76
21300;BME280;10809;49.476;11.016;2023-04-01T04:00:56;96824.03;;;8.62;61.62
21300;BME280;10809;49.476;11.016;2023-04-01T04:03:27;96826.66;;;8.62;61.78
21300;BME280;10809;49.476;11.016;2023-04-01T04:05:58;96834.59;;;8.62;61.65
21300;BME280;10809;49.476;11.016;2023-04-01T04:08:29;96830.16;;;8.62;61.62
21300;BME280;10809;49.476;11.016;2023-04-01T04:11:00;96831.09;;;8.61;61.82
21300;BME280;10809;49.476;11.016;2023-04-01T04:13:31;96836.38;;;8.61;61.77
21300;BME280;10809;49.476;11.016;2023-04-01T04:16:06;96829.31;;;8.62;61.70
21300;BME280;10809;49.476;11.016;2023-04-01T04:18:38;96839.84;;;8.62;62.16
21300;BME280;10809;49.476;11.016;2023-04-01T04:21:12;96839.00;;;8.61;61.73
21300;BME280;10809;49.476;11.016;2023-04-01T04:23:43;96843.34;;;8.62;61.49
21300;BME280;10809;49.476;11.016;2023-04-01T04:26:15;96836.47;;;8.60;61.59
21300;BME280;10809;49.476;11.016;2023-04-01T04:28:51;96847.03;;;8.60;61.40
21300;BME280;10809;49.476;11.016;2023-04-01T04:31:25;96848.00;;;8.59;61.66
21300;BME280;10809;49.476;11.016;2023-04-01T04:33:59;96839.22;;;8.58;61.73
21300;BME280;10809;49.476;11.016;2023-04-01T04:36:30;96844.50;;;8.58;61.21
21300;BME280;10809;49.476;11.016;2023-04-01T04:39:01;96844.59;;;8.57;61.48
21300;BME280;10809;49.476;11.016;2023-04-01T04:41:37;96842.81;;;8.57;61.62
21300;BME280;10809;49.476;11.016;2023-04-01T04:44:10;96840.19;;;8.57;61.41
21300;BME280;10809;49.476;11.016;2023-04-01T04:46:41;96840.06;;;8.59;61.36
21300;BME280;10809;49.476;11.016;2023-04-01T04:49:22;96841.84;;;8.58;61.67
21300;BME280;10809;49.476;11.016;2023-04-01T04:51:53;96834.91;;;8.57;61.63
21300;BME280;10809;49.476;11.016;2023-04-01T04:54:27;96835.84;;;8.56;61.78
21300;BME280;10809;49.476;11.016;2023-04-01T04:57:00;96840.41;;;8.54;61.67
21300;BME280;10809;49.476;11.016;2023-04-01T04:59:38;96831.75;;;8.52;61.89
21300;BME280;10809;49.476;11.016;2023-04-01T05:02:47;96841.44;;;8.52;61.57
21300;BME280;10809;49.476;11.016;2023-04-01T05:05:20;96839.75;;;8.51;61.60
21300;BME280;10809;49.476;11.016;2023-04-01T05:07:51;96834.72;;;8.48;62.02
21300;BME280;10809;49.476;11.016;2023-04-01T05:10:21;96845.25;;;8.48;62.01
21300;BME280;10809;49.476;11.016;2023-04-01T05:12:52;96846.31;;;8.45;61.82
21300;BME280;10809;49.476;11.016;2023-04-01T05:15:25;96841.16;;;8.44;61.76
21300;BME280;10809;49.476;11.016;2023-04-01T05:17:56;96845.59;;;8.43;61.64
21300;BME280;10809;49.476;11.016;2023-04-01T05:20:28;96844.00;;;8.41;62.05
21300;BME280;10809;49.476;11.016;2023-04-01T05:22:59;96839.56;;;8.41;61.93
21300;BME280;10809;49.476;11.016;2023-04-01T05:25:30;96845.81;;;8.40;62.37
21300;BME280;10809;49.476;11.016;2023-04-01T05:28:01;96844.00;;;8.41;62.11
21300;BME280;10809;49.476;11.016;2023-04-01T05:30:31;96846.75;;;8.39;62.27
21300;BME280;10809;49.476;11.016;2023-04-01T05:33:09;96844.84;;;8.41;62.05
21300;BME280;10809;49.476;11.016;2023-04-01T05:35:49;96839.66;;;8.40;62.30
21300;BME280;10809;49.476;11.016;2023-04-01T05:38:23;96846.66;;;8.41;62.27
21300;BME280;10809;49.476;11.016;2023-04-01T05:40:59;96839.56;;;8.41;62.39
21300;BME280;10809;49.476;11.016;2023-04-01T05:43:30;96833.47;;;8.41;62.12
21300;BME280;10809;49.476;11.016;2023-04-01T05:46:07;96836.09;;;8.41;62.30
21300;BME280;10809;49.476;11.016;2023-04-01T05:49:01;96835.13;;;8.42;62.25
21300;BME280;10809;49.476;11.016;2023-04-01T05:51:32;96831.53;;;8.43;62.23
21300;BME280;10809;49.476;11.016;2023-04-01T05:54:05;96843.81;;;8.44;62.47
21300;BME280;10809;49.476;11.016;2023-04-01T05:56:35;96832.41;;;8.43;62.41
21300;BME280;10809;49.476;11.016;2023-04-01T05:59:06;96834.94;;;8.45;62.71
21300;BME280;10809;49.476;11.016;2023-04-01T06:01:39;96846.31;;;8.45;62.59
21300;BME280;10809;49.476;11.016;2023-04-01T06:04:14;96834.72;;;8.48;62.24
21300;BME280;10809;49.476;11.016;2023-04-01T06:06:48;96837.25;;;8.49;62.50
21300;BME280;10809;49.476;11.016;2023-04-01T06:09:26;96839.75;;;8.51;62.68
21300;BME280;10809;49.476;11.016;2023-04-01T06:15:17;96856.13;;;8.56;62.41
21300;BME280;10809;49.476;11.016;2023-04-01T06:17:56;96851.44;;;8.59;62.30
21300;BME280;10809;49.476;11.016;2023-04-01T06:26:20;96853.56;;;8.67;62.28
21300;BME280;10809;49.476;11.016;2023-04-01T06:35:22;96842.69;;;8.71;62.53
21300;BME280;10809;49.476;11.016;2023-04-01T06:38:28;96854.84;;;8.74;62.63
21300;BME280;10809;49.476;11.016;2023-04-01T06:50:28;96851.84;;;8.91;62.14
21300;BME280;10809;49.476;11.016;2023-04-01T06:53:38;96846.22;;;8.95;62.03
21300;BME280;10809;49.476;11.016;2023-04-01T06:56:32;96850.97;;;9.03;62.16
21300;BME280;10809;49.476;11.016;2023-04-01T06:59:22;96834.66;;;9.09;62.41
21300;BME280;10809;49.476;11.016;2023-04-01T07:01:58;96842.97;;;9.15;62.37
21300;BME280;10809;49.476;11.016;2023-04-01T07:04:32;96838.31;;;9.19;61.70
21300;BME280;10809;49.476;11.016;2023-04-01T07:10:28;96834.13;;;9.27;61.89
21300;BME280;10809;49.476;11.016;2023-04-01T07:13:41;96842.56;;;9.32;61.84
21300;BME280;10809;49.476;11.016;2023-04-01T07:19:50;96836.72;;;9.40;61.24
21300;BME280;10809;49.476;11.016;2023-04-01T07:22:30;96839.25;;;9.41;61.42
21300;BME280;10809;49.476;11.016;2023-04-01T07:25:25;96836.25;;;9.46;61.18
21300;BME280;10809;49.476;11.016;2023-04-01T07:28:14;96833.41;;;9.49;61.43
21300;BME280;10809;49.476;11.016;2023-04-01T07:31:29;96830.53;;;9.52;60.82
21300;BME280;10809;49.476;11.016;2023-04-01T07:37:11;96832.72;;;9.58;61.08
21300;BME280;10809;49.476;11.016;2023-04-01T07:45:57;96835.75;;;9.65;60.80
21300;BME280;10809;49.476;11.016;2023-04-01T07:49:04;96851.47;;;9.66;60.75
21300;BME280;10809;49.476;11.016;2023-04-01T07:57:19;96853.66;;;9.72;60.43
21300;BME280;10809;49.476;11.016;2023-04-01T08:00:24;96855.09;;;9.76;60.25
21300;BME280;10809;49.476;11.016;2023-04-01T08:06:10;96854.19;;;9.88;60.48
21300;BME280;10809;49.476;11.016;2023-04-01T08:09:06;96854.66;;;9.93;60.10
21300;BME280;10809;49.476;11.016;2023-04-01T08:12:27;96858.06;;;9.95;59.82
21300;BME280;10809;49.476;11.016;2023-04-01T08:18:20;96855.94;;;10.00;59.41
21300;BME280;10809;49.476;11.016;2023-04-01T08:20:58;96855.94;;;10.00;59.29
21300;BME280;10809;49.476;11.016;2023-04-01T08:23:33;96848.72;;;10.02;59.47
21300;BME280;10809;49.476;11.016;2023-04-01T08:26:28;96859.06;;;10.05;59.58
21300;BME280;10809;49.476;11.016;2023-04-01T08:29:05;96856.19;;;10.08;59.60
21300;BME280;10809;49.476;11.016;2023-04-01T08:31:55;96861.22;;;10.11;59.85
21300;BME280;10809;49.476;11.016;2023-04-01T08:34:35;96851.28;;;10.15;59.18
21300;BME280;10809;49.476;11.016;2023-04-01T08:37:13;96851.16;;;10.16;58.97
21300;BME280;10809;49.476;11.016;2023-04-01T08:42:54;96854.41;;;10.20;59.06
21300;BME280;10809;49.476;11.016;2023-04-01T08:45:56;96849.00;;;10.21;59.02
21300;BME280;10809;49.476;11.016;2023-04-01T08:57:15;96838.19;;;10.24;59.03
21300;BME280;10809;49.476;11.016;2023-04-01T09:00:35;96851.41;;;10.24;58.64
21300;BME280;10809;49.476;11.016;2023-04-01T09:37:31;96839.41;;;10.42;58.74
21300;BME280;10809;49.476;11.016;2023-04-01T09:40:18;96849.84;;;10.44;58.36
21300;BME280;10809;49.476;11.016;2023-04-01T09:43:26;96856.13;;;10.43;58.50
21300;BME280;10809;49.476;11.016;2023-04-01T09:46:04;96860.44;;;10.44;58.52
21300;BME280;10809;49.476;11.016;2023-04-01T09:48:44;96852.50;;;10.44;58.59
21300;BME280;10809;49.476;11.016;2023-04-01T09:51:51;96865.72;;;10.44;58.44
21300;BME280;10809;49.476;11.016;2023-04-01T10:32:23;96868.69;;;10.17;60.58
21300;BME280;10809;49.476;11.016;2023-04-01T10:42:01;96851.16;;;10.16;60.58
21300;BME280;10809;49.476;11.016;2023-04-01T10:53:31;96853.72;;;9.94;61.44
21300;BME280;10809;49.476;11.016;2023-04-01T10:56:39;96853.13;;;9.91;61.79
21300;BME280;10809;49.476;11.016;2023-04-01T11:15:26;96864.16;;;9.85;62.45
21300;BME280;10809;49.476;11.016;2023-04-01T11:31:24;96858.59;;;9.77;62.35
21300;BME280;10809;49.476;11.016;2023-04-01T11:40:59;96859.06;;;9.71;62.26
21300;BME280;10809;49.476;11.016;2023-04-01T11:47:49;96858.44;;;9.67;62.53
21300;BME280;10809;49.476;11.016;2023-04-01T12:02:18;96864.97;;;9.74;63.21
21300;BME280;10809;49.476;11.016;2023-04-01T12:13:40;96871.75;;;9.89;63.80
21300;BME280;10809;49.476;11.016;2023-04-01T12:22:16;96879.28;;;10.06;63.99
21300;BME280;10809;49.476;11.016;2023-04-01T12:36:13;96872.31;;;10.16;63.67
21300;BME280;10809;49.476;11.016;2023-04-01T12:41:59;96877.38;;;10.19;63.67
21300;BME280;10809;49.476;11.016;2023-04-01T12:47:30;96878.44;;;10.17;63.70
21300;BME280;10809;49.476;11.016;2023-04-01T12:55:52;96874.94;;;10.16;63.79
21300;BME280;10809;49.476;11.016;2023-04-01T13:01:48;96879.66;;;10.24;63.57
21300;BME280;10809;49.476;11.016;2023-04-01T13:19:21;96881.25;;;10.48;63.56
21300;BME280;10809;49.476;11.016;2023-04-01T13:21:50;96881.00;;;10.51;63.50
21300;BME280;10809;49.476;11.016;2023-04-01T13:24:49;96883.28;;;10.56;63.38
21300;BME280;10809;49.476;11.016;2023-04-01T13:32:56;96889.44;;;10.56;62.65
21300;BME280;10809;49.476;11.016;2023-04-01T13:44:12;96888.34;;;10.59;63.05
21300;BME280;10809;49.476;11.016;2023-04-01T13:47:24;96897.97;;;10.60;62.72
21300;BME280;10809;49.476;11.016;2023-04-01T13:55:25;96888.72;;;10.65;62.41
21300;BME280;10809;49.476;11.016;2023-04-01T13:58:10;96894.72;;;10.67;62.76
21300;BME280;10809;49.476;11.016;2023-04-01T14:04:02;96903.63;;;10.66;62.50
21300;BME280;10809;49.476;11.016;2023-04-01T14:06:45;96905.53;;;10.64;62.41
21300;BME280;10809;49.476;11.016;2023-04-01T14:09:30;96908.31;;;10.63;62.21
21300;BME280;10809;49.476;11.016;2023-04-01T14:14:50;96914.06;;;10.57;62.04
21300;BME280;10809;49.476;11.016;2023-04-01T14:24:22;96909.03;;;10.43;62.28
21300;BME280;10809;49.476;11.016;2023-04-01T14:35:38;96925.25;;;10.27;62.78
21300;BME280;10809;49.476;11.016;2023-04-01T14:38:39;96923.75;;;10.23;62.56
21300;BME280;10809;49.476;11.016;2023-04-01T14:41:26;96929.28;;;10.20;63.02
21300;BME280;10809;49.476;11.016;2023-04-01T14:50:11;96931.69;;;10.12;62.34
21300;BME280;10809;49.476;11.016;2023-04-01T14:55:55;96935.75;;;10.05;63.01
21300;BME280;10809;49.476;11.016;2023-04-01T14:58:47;96924.34;;;10.05;62.70
21300;BME280;10809;49.476;11.016;2023-04-01T15:04:41;96925.50;;;10.01;62.91
21300;BME280;10809;49.476;11.016;2023-04-01T15:10:33;96927.41;;;9.99;63.37
21300;BME280;10809;49.476;11.016;2023-04-01T15:16:27;96923.50;;;10.04;63.34
21300;BME280;10809;49.476;11.016;2023-04-01T15:22:19;96932.41;;;10.14;63.67
21300;BME280;10809;49.476;11.016;2023-04-01T15:33:41;96948.53;;;10.22;63.07
21300;BME280;10809;49.476;11.016;2023-04-01T15:36:44;96937.22;;;10.20;62.96
21300;BME280;10809;49.476;11.016;2023-04-01T15:39:46;96954.91;;;10.20;63.04
21300;BME280;10809;49.476;11.016;2023-04-01T15:42:30;96954.06;;;10.19;63.05
21300;BME280;10809;49.476;11.016;2023-04-01T15:54:05;96968.50;;;10.15;62.85
21300;BME280;10809;49.476;11.016;2023-04-01T15:57:15;96946.47;;;10.15;63.05
21300;BME280;10809;49.476;11.016;2023-04-01T16:00:11;96968.59;;;10.14;63.04
21300;BME280;10809;49.476;11.016;2023-04-01T16:02:48;96972.06;;;10.14;62.84
21300;BME280;10809;49.476;11.016;2023-04-01T16:05:33;96976.03;;;10.09;63.26
21300;BME280;10809;49.476;11.016;2023-04-01T16:11:25;96972.75;;;10.05;62.92
21300;BME280;10809;49.476;11.016;2023-04-01T16:23:03;96983.63;;;9.90;62.78
21300;BME280;10809;49.476;11.016;2023-04-01T16:25:44;96986.50;;;9.87;62.78
21300;BME280;10809;49.476;11.016;2023-04-01T16:28:48;96984.06;;;9.84;63.18
21300;BME280;10809;49.476;11.016;2023-04-01T16:31:43;96985.13;;;9.81;62.70
21300;BME280;10809;49.476;11.016;2023-04-01T16:34:20;96991.25;;;9.82;62.77
21300;BME280;10809;49.476;11.016;2023-04-01T16:37:03;96995.06;;;9.78;62.50
21300;BME280;10809;49.476;11.016;2023-04-01T16:45:26;96991.19;;;9.71;62.52
21300;BME280;10809;49.476;11.016;2023-04-01T16:48:11;97008.13;;;9.68;62.68
21300;BME280;10809;49.476;11.016;2023-04-01T16:50:58;96999.47;;;9.66;62.45
21300;BME280;10809;49.476;11.016;2023-04-01T16:53:50;97004.13;;;9.63;62.56
21300;BME280;10809;49.476;11.016;2023-04-01T16:56:28;97006.03;;;9.61;63.02
21300;BME280;10809;49.476;11.016;2023-04-01T16:59:07;97012.16;;;9.61;62.90
21300;BME280;10809;49.476;11.016;2023-04-01T17:02:02;97015.13;;;9.56;63.28
21300;BME280;10809;49.476;11.016;2023-04-01T17:04:51;97012.59;;;9.55;62.88
21300;BME280;10809;49.476;11.016;2023-04-01T17:10:28;97026.66;;;9.55;63.16
21300;BME280;10809;49.476;11.016;2023-04-01T17:13:28;97025.19;;;9.51;63.24
21300;BME280;10809;49.476;11.016;2023-04-01T17:19:08;97031.66;;;9.47;63.26
21300;BME280;10809;49.476;11.016;2023-04-01T17:33:42;97042.16;;;9.36;63.30
21300;BME280;10809;49.476;11.016;2023-04-01T17:36:36;97051.88;;;9.36;63.76
21300;BME280;10809;49.476;11.016;2023-04-01T17:39:53;97066.97;;;9.34;63.29
21300;BME280;10809;49.476;11.016;2023-04-01T17:45:42;97069.72;;;9.32;63.58
21300;BME280;10809;49.476;11.016;2023-04-01T17:48:38;97074.13;;;9.32;63.65
21300;BME280;10809;49.476;11.016;2023-04-01T17:57:39;97074.34;;;9.29;63.27
21300;BME280;10809;49.476;11.016;2023-04-01T18:00:38;97079.63;;;9.29;63.54
21300;BME280;10809;49.476;11.016;2023-04-01T18:06:12;97085.88;;;9.28;63.44
21300;BME280;10809;49.476;11.016;2023-04-01T18:11:54;97086.84;;;9.27;63.19
21300;BME280;10809;49.476;11.016;2023-04-01T18:17:55;97097.41;;;9.27;63.54
21300;BME280;10809;49.476;11.016;2023-04-01T18:25:01;97098.66;;;9.21;63.14
21300;BME280;10809;49.476;11.016;2023-04-01T18:31:07;97099.63;;;9.20;63.82
21300;BME280;10809;49.476;11.016;2023-04-01T18:34:02;97102.25;;;9.20;63.37
21300;BME280;10809;49.476;11.016;2023-04-01T18:36:56;97100.59;;;9.19;63.43
21300;BME280;10809;49.476;11.016;2023-04-01T18:39:36;97109.44;;;9.18;63.41
21300;BME280;10809;49.476;11.016;2023-04-01T18:44:56;97122.75;;;9.17;63.68
21300;BME280;10809;49.476;11.016;2023-04-01T18:47:44;97117.47;;;9.17;63.47
21300;BME280;10809;49.476;11.016;2023-04-01T18:50:32;97121.06;;;9.16;63.59
21300;BME280;10809;49.476;11.016;2023-04-01T18:53:19;97120.09;;;9.17;63.98
21300;BME280;10809;49.476;11.016;2023-04-01T18:55:56;97125.38;;;9.17;63.45
21300;BME280;10809;49.476;11.016;2023-04-01T19:04:43;97137.88;;;9.15;63.47
21300;BME280;10809;49.476;11.016;2023-04-01T19:10:13;97148.66;;;9.12;63.45
21300;BME280;10809;49.476;11.016;2023-04-01T19:12:50;97158.25;;;9.13;63.70
21300;BME280;10809;49.476;11.016;2023-04-01T19:15:34;97158.34;;;9.11;63.76
21300;BME280;10809;49.476;11.016;2023-04-01T19:27:50;97163.72;;;9.10;63.72
21300;BME280;10809;49.476;11.016;2023-04-01T19:30:31;97165.63;;;9.08;63.88
21300;BME280;10809;49.476;11.016;2023-04-01T19:36:32;97162.16;;;9.07;63.71
21300;BME280;10809;49.476;11.016;2023-04-01T19:45:29;97166.69;;;9.05;63.82
21300;BME280;10809;49.476;11.016;2023-04-01T19:51:35;97174.59;;;9.05;64.08
21300;BME280;10809;49.476;11.016;2023-04-01T19:54:28;97167.66;;;9.04;64.12
21300;BME280;10809;49.476;11.016;2023-04-01T19:57:23;97169.44;;;9.04;64.02
21300;BME280;10809;49.476;11.016;2023-04-01T20:02:50;97180.94;;;9.03;63.91
21300;BME280;10809;49.476;11.016;2023-04-01T20:05:44;97176.59;;;9.02;64.28
21300;BME280;10809;49.476;11.016;2023-04-01T20:08:19;97179.22;;;9.02;64.09
21300;BME280;10809;49.476;11.016;2023-04-01T20:11:11;97184.50;;;9.02;63.84
21300;BME280;10809;49.476;11.016;2023-04-01T20:16:51;97191.63;;;9.01;64.20
21300;BME280;10809;49.476;11.016;2023-04-01T20:19:40;97198.69;;;9.01;63.76
21300;BME280;10809;49.476;11.016;2023-04-01T20:25:30;97200.34;;;9.02;64.00
21300;BME280;10809;49.476;11.016;2023-04-01T20:28:25;97200.34;;;9.02;64.18
21300;BME280;10809;49.476;11.016;2023-04-01T20:31:20;97201.22;;;9.02;64.25
21300;BME280;10809;49.476;11.016;2023-04-01T20:34:17;97200.34;;;9.02;64.20
21300;BME280;10809;49.476;11.016;2023-04-01T20:40:12;97218.72;;;9.03;63.85
21300;BME280;10809;49.476;11.016;2023-04-01T20:43:23;97218.72;;;9.03;63.97
21300;BME280;10809;49.476;11.016;2023-04-01T20:46:22;97214.31;;;9.04;63.63
21300;BME280;10809;49.476;11.016;2023-04-01T21:06:41;97233.66;;;9.04;63.98
21300;BME280;10809;49.476;11.016;2023-04-01T21:09:29;97232.78;;;9.04;63.90
21300;BME280;10809;49.476;11.016;2023-04-01T21:23:59;97258.22;;;9.05;63.95
21300;BME280;10809;49.476;11.016;2023-04-01T21:26:52;97250.41;;;9.03;63.95
21300;BME280;10809;49.476;11.016;2023-04-01T21:29:44;97255.69;;;9.03;63.76
21300;BME280;10809;49.476;11.016;2023-04-01T21:46:26;97270.16;;;8.98;63.90
21300;BME280;10809;49.476;11.016;2023-04-01T22:06:45;97289.91;;;8.92;63.67
21300;BME280;10809;49.476;11.016;2023-04-01T22:09:39;97291.69;;;8.92;63.95
21300;BME280;10809;49.476;11.016;2023-04-01T22:12:26;97292.63;;;8.91;63.96
21300;BME280;10809;49.476;11.016;2023-04-01T22:17:51;97292.72;;;8.89;64.10
21300;BME280;10809;49.476;11.016;2023-04-01T22:21:04;97301.56;;;8.88;64.00
21300;BME280;10809;49.476;11.016;2023-04-01T22:24:27;97299.78;;;8.89;63.82
21300;BME280;10809;49.476;11.016;2023-04-01T22:26:37;97301.56;;;8.88;63.75
21300;BME280;10809;49.476;11.016;2023-04-01T22:29:20;97304.31;;;8.87;64.08
21300;BME280;10809;49.476;11.016;2023-04-01T22:32:03;97311.41;;;8.86;64.08
21300;BME280;10809;49.476;11.016;2023-04-01T22:34:54;97310.66;;;8.84;64.12
21300;BME280;10809;49.476;11.016;2023-04-01T22:37:42;97319.53;;;8.83;64.34
21300;BME280;10809;49.476;11.016;2023-04-01T22:43:27;97323.94;;;8.83;63.86
21300;BME280;10809;49.476;11.016;2023-04-01T22:49:42;97326.78;;;8.80;64.05
21300;BME280;10809;49.476;11.016;2023-04-01T22:52:26;97330.25;;;8.80;64.18
21300;BME280;10809;49.476;11.016;2023-04-01T22:55:05;97325.94;;;8.79;63.89
21300;BME280;10809;49.476;11.016;2023-04-01T22:57:52;97333.94;;;8.78;64.27
21300;BME280;10809;49.476;11.016;2023-04-01T23:00:36;97333.94;;;8.78;64.43
21300;BME280;10809;49.476;11.016;2023-04-01T23:05:52;97338.47;;;8.76;64.29